sensor_id;sensor_type;location;lat;lon;timestamp;temperature;humidity
5246;DHT22;54412;51.206;6.888;2023-08-12T00:01:51;22.30;99.90
5246;DHT22;54412;51.206;6.888;2023-08-12T00:04:16;22.20;99.90
5246;DHT22;54412;51.206;6.888;2023-08-12T00:06:42;22.20;99.90
5246;DHT22;54412;51.206;6.888;2023-08-12T00:09:09;22.20;99.90
5246;DHT22;54412;51.206;6.888;2023-08-12T00:11:37;22.20;99.90
5246;DHT22;54412;51.206;6.888;2023-08-12T00:14:04;22.30;99.90
5246;DHT22;54412;51.206;6.888;2023-08-12T00:16:30;22.30;99.90
5246;DHT22;54412;51.206;6.888;2023-08-12T00:18:55;22.30;99.90
5246;DHT22;54412;51.206;6.888;2023-08-12T00:21:21;22.30;99.90
5246;DHT22;54412;51.206;6.888;2023-08-12T00:23:47;22.30;99.90
5246;DHT22;54412;51.206;6.888;2023-08-12T00:26:15;22.30;99.90
5246;DHT22;54412;51.206;6.888;2023-08-12T00:28:41;22.30;99.90
5246;DHT22;54412;51.206;6.888;2023-08-12T00:31:06;22.30;99.90
5246;DHT22;54412;51.206;6.888;2023-08-12T00:33:32;22.30;99.90
5246;DHT22;54412;51.206;6.888;2023-08-12T00:35:58;22.20;99.90
5246;DHT22;54412;51.206;6.888;2023-08-12T00:38:24;22.30;99.90
5246;DHT22;54412;51.206;6.888;2023-08-12T00:40:50;22.30;99.90
5246;DHT22;54412;51.206;6.888;2023-08-12T00:43:15;22.20;99.90
5246;DHT22;54412;51.206;6.888;2023-08-12T00:45:41;22.30;99.90
5246;DHT22;54412;51.206;6.888;2023-08-12T00:48:08;22.20;99.90
5246;DHT22;54412;51.206;6.888;2023-08-12T00:50:36;22.00;99.90
5246;DHT22;54412;51.206;6.888;2023-08-12T00:53:03;21.80;99.90
5246;DHT22;54412;51.206;6.888;2023-08-12T00:55:31;21.90;99.90
5246;DHT22;54412;51.206;6.888;2023-08-12T00:57:58;22.00;99.90
5246;DHT22;54412;51.206;6.888;2023-08-12T01:00:24;21.80;99.90
5246;DHT22;54412;51.206;6.888;2023-08-12T01:02:51;21.90;99.90
5246;DHT22;54412;51.206;6.888;2023-08-12T01:05:19;21.80;99.90
5246;DHT22;54412;51.206;6.888;2023-08-12T01:07:45;21.80;99.90
5246;DHT22;54412;51.206;6.888;2023-08-12T01:10:12;21.90;99.90
5246;DHT22;54412;51.206;6.888;2023-08-12T01:12:49;21.90;99.90
5246;DHT22;54412;51.206;6.888;2023-08-12T01:15:24;21.80;99.90
5246;DHT22;54412;51.206;6.888;2023-08-12T01:17:54;21.60;99.90
5246;DHT22;54412;51.206;6.888;2023-08-12T01:20:21;21.60;99.90
5246;DHT22;54412;51.206;6.888;2023-08-12T01:22:57;21.60;99.90
5246;DHT22;54412;51.206;6.888;2023-08-12T01:25:27;21.70;99.90
5246;DHT22;54412;51.206;6.888;2023-08-12T01:27:52;21.80;99.90
5246;DHT22;54412;51.206;6.888;2023-08-12T01:30:19;21.80;99.90
5246;DHT22;54412;51.206;6.888;2023-08-12T01:33:10;21.80;99.90
5246;DHT22;54412;51.206;6.888;2023-08-12T01:35:50;21.70;99.90
5246;DHT22;54412;51.206;6.888;2023-08-12T01:38:22;21.60;99.90
5246;DHT22;54412;51.206;6.888;2023-08-12T01:40:52;21.60;99.90
5246;DHT22;54412;51.206;6.888;2023-08-12T01:43:19;21.60;99.90
5246;DHT22;54412;51.206;6.888;2023-08-12T01:45:45;21.60;99.90
5246;DHT22;54412;51.206;6.888;2023-08-12T01:48:10;21.60;99.90
5246;DHT22;54412;51.206;6.888;2023-08-12T01:50:36;21.60;99.90
5246;DHT22;54412;51.206;6.888;2023-08-12T01:53:02;21.50;99.90
5246;DHT22;54412;51.206;6.888;2023-08-12T01:55:28;21.60;99.90
5246;DHT22;54412;51.206;6.888;2023-08-12T01:57:53;21.60;99.90
5246;DHT22;54412;51.206;6.888;2023-08-12T02:00:19;21.60;99.90
5246;DHT22;54412;51.206;6.888;2023-08-12T02:02:44;21.70;99.90
5246;DHT22;54412;51.206;6.888;2023-08-12T02:05:14;21.70;99.90
5246;DHT22;54412;51.206;6.888;2023-08-12T02:07:40;21.70;99.90
5246;DHT22;54412;51.206;6.888;2023-08-12T02:10:06;21.80;99.90
5246;DHT22;54412;51.206;6.888;2023-08-12T02:12:32;21.80;99.90
5246;DHT22;54412;51.206;6.888;2023-08-12T02:14:58;21.80;99.90
5246;DHT22;54412;51.206;6.888;2023-08-12T02:17:23;21.70;99.90
5246;DHT22;54412;51.206;6.888;2023-08-12T02:19:49;21.60;99.90
5246;DHT22;54412;51.206;6.888;2023-08-12T02:22:15;21.60;99.90
5246;DHT22;54412;51.206;6.888;2023-08-12T02:24:40;21.60;99.90
5246;DHT22;54412;51.206;6.888;2023-08-12T02:27:06;21.50;99.90
5246;DHT22;54412;51.206;6.888;2023-08-12T02:29:31;21.40;99.90
5246;DHT22;54412;51.206;6.888;2023-08-12T02:31:58;21.40;99.90
5246;DHT22;54412;51.206;6.888;2023-08-12T02:34:24;21.60;99.90
5246;DHT22;54412;51.206;6.888;2023-08-12T02:36:49;21.60;99.90
5246;DHT22;54412;51.206;6.888;2023-08-12T02:39:15;21.60;99.90
5246;DHT22;54412;51.206;6.888;2023-08-12T02:41:41;21.50;99.90
5246;DHT22;54412;51.206;6.888;2023-08-12T02:44:07;21.40;99.90
5246;DHT22;54412;51.206;6.888;2023-08-12T02:46:32;21.40;99.90
5246;DHT22;54412;51.206;6.888;2023-08-12T02:48:58;21.50;99.90
5246;DHT22;54412;51.206;6.888;2023-08-12T02:51:24;21.60;99.90
5246;DHT22;54412;51.206;6.888;2023-08-12T02:53:49;21.60;99.90
5246;DHT22;54412;51.206;6.888;2023-08-12T02:56:15;21.60;99.90
5246;DHT22;54412;51.206;6.888;2023-08-12T02:58:41;21.60;99.90
5246;DHT22;54412;51.206;6.888;2023-08-12T03:01:06;21.60;99.90
5246;DHT22;54412;51.206;6.888;2023-08-12T03:03:32;21.50;99.90
5246;DHT22;54412;51.206;6.888;2023-08-12T03:05:58;21.50;99.90
5246;DHT22;54412;51.206;6.888;2023-08-12T03:08:23;21.40;99.90
5246;DHT22;54412;51.206;6.888;2023-08-12T03:10:49;21.50;99.90
5246;DHT22;54412;51.206;6.888;2023-08-12T03:13:14;21.50;99.90
5246;DHT22;54412;51.206;6.888;2023-08-12T03:15:40;21.60;99.90
5246;DHT22;54412;51.206;6.888;2023-08-12T03:18:08;21.60;99.90
5246;DHT22;54412;51.206;6.888;2023-08-12T03:20:33;21.60;99.90
5246;DHT22;54412;51.206;6.888;2023-08-12T03:22:59;21.70;99.90
5246;DHT22;54412;51.206;6.888;2023-08-12T03:25:25;21.70;99.90
5246;DHT22;54412;51.206;6.888;2023-08-12T03:27:51;21.60;99.90
5246;DHT22;54412;51.206;6.888;2023-08-12T03:30:17;21.60;99.90
5246;DHT22;54412;51.206;6.888;2023-08-12T03:32:42;21.40;99.90
5246;DHT22;54412;51.206;6.888;2023-08-12T03:35:08;21.40;99.90
5246;DHT22;54412;51.206;6.888;2023-08-12T03:37:34;21.30;99.90
5246;DHT22;54412;51.206;6.888;2023-08-12T03:40:00;21.20;99.90
5246;DHT22;54412;51.206;6.888;2023-08-12T03:42:26;21.20;99.90
5246;DHT22;54412;51.206;6.888;2023-08-12T03:44:51;21.10;99.90
5246;DHT22;54412;51.206;6.888;2023-08-12T03:47:17;21.10;99.90
5246;DHT22;54412;51.206;6.888;2023-08-12T03:49:47;21.10;99.90
5246;DHT22;54412;51.206;6.888;2023-08-12T03:52:13;21.30;99.90
5246;DHT22;54412;51.206;6.888;2023-08-12T03:54:38;21.30;99.90
5246;DHT22;54412;51.206;6.888;2023-08-12T03:57:04;21.30;99.90
5246;DHT22;54412;51.206;6.888;2023-08-12T03:59:30;21.10;99.90
5246;DHT22;54412;51.206;6.888;2023-08-12T04:01:56;21.10;99.90
5246;DHT22;54412;51.206;6.888;2023-08-12T04:04:23;21.00;99.90
5246;DHT22;54412;51.206;6.888;2023-08-12T04:06:49;21.20;99.90
5246;DHT22;54412;51.206;6.888;2023-08-12T04:09:17;21.10;99.90
5246;DHT22;54412;51.206;6.888;2023-08-12T04:11:45;21.20;99.90
5246;DHT22;54412;51.206;6.888;2023-08-12T04:14:12;21.30;99.90
5246;DHT22;54412;51.206;6.888;2023-08-12T04:16:39;21.30;99.90
5246;DHT22;54412;51.206;6.888;2023-08-12T04:19:05;21.30;99.90
5246;DHT22;54412;51.206;6.888;2023-08-12T04:21:31;21.30;99.90
5246;DHT22;54412;51.206;6.888;2023-08-12T04:23:57;21.30;99.90
5246;DHT22;54412;51.206;6.888;2023-08-12T04:26:22;21.20;99.90
5246;DHT22;54412;51.206;6.888;2023-08-12T04:28:48;21.10;99.90
5246;DHT22;54412;51.206;6.888;2023-08-12T04:31:14;21.10;99.90
5246;DHT22;54412;51.206;6.888;2023-08-12T04:33:39;21.00;99.90
5246;DHT22;54412;51.206;6.888;2023-08-12T04:36:05;21.00;99.90
5246;DHT22;54412;51.206;6.888;2023-08-12T04:38:31;21.10;99.90
5246;DHT22;54412;51.206;6.888;2023-08-12T04:40:58;21.10;99.90
5246;DHT22;54412;51.206;6.888;2023-08-12T04:43:23;21.20;99.90
5246;DHT22;54412;51.206;6.888;2023-08-12T04:45:49;21.10;99.90
5246;DHT22;54412;51.206;6.888;2023-08-12T04:48:15;21.00;99.90
5246;DHT22;54412;51.206;6.888;2023-08-12T04:50:42;21.10;99.90
5246;DHT22;54412;51.206;6.888;2023-08-12T04:53:08;21.10;99.90
5246;DHT22;54412;51.206;6.888;2023-08-12T04:55:34;21.00;99.90
5246;DHT22;54412;51.206;6.888;2023-08-12T04:58:02;21.20;99.90
5246;DHT22;54412;51.206;6.888;2023-08-12T05:00:28;21.30;99.90
5246;DHT22;54412;51.206;6.888;2023-08-12T05:02:54;21.10;99.90
5246;DHT22;54412;51.206;6.888;2023-08-12T05:05:20;21.10;99.90
5246;DHT22;54412;51.206;6.888;2023-08-12T05:07:46;21.20;99.90
5246;DHT22;54412;51.206;6.888;2023-08-12T05:10:16;21.30;99.90
5246;DHT22;54412;51.206;6.888;2023-08-12T05:12:43;21.20;99.90
5246;DHT22;54412;51.206;6.888;2023-08-12T05:15:10;21.20;99.90
5246;DHT22;54412;51.206;6.888;2023-08-12T05:17:36;21.20;99.90
5246;DHT22;54412;51.206;6.888;2023-08-12T05:20:02;21.20;99.90
5246;DHT22;54412;51.206;6.888;2023-08-12T05:22:29;21.20;99.90
5246;DHT22;54412;51.206;6.888;2023-08-12T05:24:55;21.00;99.90
5246;DHT22;54412;51.206;6.888;2023-08-12T05:27:20;21.00;99.90
5246;DHT22;54412;51.206;6.888;2023-08-12T05:29:46;21.20;99.90
5246;DHT22;54412;51.206;6.888;2023-08-12T05:32:12;21.20;99.90
5246;DHT22;54412;51.206;6.888;2023-08-12T05:34:37;21.20;99.90
5246;DHT22;54412;51.206;6.888;2023-08-12T05:37:03;21.20;99.90
5246;DHT22;54412;51.206;6.888;2023-08-12T05:39:29;21.20;99.90
5246;DHT22;54412;51.206;6.888;2023-08-12T05:41:54;21.30;99.90
5246;DHT22;54412;51.206;6.888;2023-08-12T05:44:20;21.20;99.90
5246;DHT22;54412;51.206;6.888;2023-08-12T05:46:46;21.10;99.90
5246;DHT22;54412;51.206;6.888;2023-08-12T05:49:11;21.00;99.90
5246;DHT22;54412;51.206;6.888;2023-08-12T05:51:37;21.00;99.90
5246;DHT22;54412;51.206;6.888;2023-08-12T05:54:04;20.90;99.90
5246;DHT22;54412;51.206;6.888;2023-08-12T05:56:30;21.00;99.90
5246;DHT22;54412;51.206;6.888;2023-08-12T05:58:56;20.90;99.90
5246;DHT22;54412;51.206;6.888;2023-08-12T06:01:21;21.00;99.90
5246;DHT22;54412;51.206;6.888;2023-08-12T06:03:47;20.90;99.90
5246;DHT22;54412;51.206;6.888;2023-08-12T06:06:13;20.80;99.90
5246;DHT22;54412;51.206;6.888;2023-08-12T06:08:38;20.80;99.90
5246;DHT22;54412;51.206;6.888;2023-08-12T06:11:04;20.90;99.90
5246;DHT22;54412;51.206;6.888;2023-08-12T06:13:30;20.90;99.90
5246;DHT22;54412;51.206;6.888;2023-08-12T06:15:55;20.90;99.90
5246;DHT22;54412;51.206;6.888;2023-08-12T06:18:22;20.80;99.90
5246;DHT22;54412;51.206;6.888;2023-08-12T06:20:48;20.80;99.90
5246;DHT22;54412;51.206;6.888;2023-08-12T06:23:13;20.80;99.90
5246;DHT22;54412;51.206;6.888;2023-08-12T06:25:39;20.80;99.90
5246;DHT22;54412;51.206;6.888;2023-08-12T06:28:05;20.80;99.90
5246;DHT22;54412;51.206;6.888;2023-08-12T06:30:33;20.60;99.90
5246;DHT22;54412;51.206;6.888;2023-08-12T06:32:58;20.60;99.90
5246;DHT22;54412;51.206;6.888;2023-08-12T06:35:24;20.60;99.90
5246;DHT22;54412;51.206;6.888;2023-08-12T06:37:50;20.70;99.90
5246;DHT22;54412;51.206;6.888;2023-08-12T06:40:15;20.70;99.90
5246;DHT22;54412;51.206;6.888;2023-08-12T06:42:41;20.60;99.90
5246;DHT22;54412;51.206;6.888;2023-08-12T06:45:07;20.60;99.90
5246;DHT22;54412;51.206;6.888;2023-08-12T06:47:34;20.60;99.90
5246;DHT22;54412;51.206;6.888;2023-08-12T06:49:59;20.50;99.90
5246;DHT22;54412;51.206;6.888;2023-08-12T06:52:25;20.50;99.90
5246;DHT22;54412;51.206;6.888;2023-08-12T06:54:51;20.60;99.90
5246;DHT22;54412;51.206;6.888;2023-08-12T06:57:17;20.50;99.90
5246;DHT22;54412;51.206;6.888;2023-08-12T06:59:42;20.60;99.90
5246;DHT22;54412;51.206;6.888;2023-08-12T07:02:08;20.60;99.90
5246;DHT22;54412;51.206;6.888;2023-08-12T07:04:34;20.70;99.90
5246;DHT22;54412;51.206;6.888;2023-08-12T07:06:59;20.60;99.90
5246;DHT22;54412;51.206;6.888;2023-08-12T07:09:25;20.60;99.90
5246;DHT22;54412;51.206;6.888;2023-08-12T07:11:51;20.60;99.90
5246;DHT22;54412;51.206;6.888;2023-08-12T07:14:17;20.60;99.90
5246;DHT22;54412;51.206;6.888;2023-08-12T07:16:42;20.70;99.90
5246;DHT22;54412;51.206;6.888;2023-08-12T07:19:08;20.80;99.90
5246;DHT22;54412;51.206;6.888;2023-08-12T07:21:34;20.70;99.90
5246;DHT22;54412;51.206;6.888;2023-08-12T07:23:59;20.70;99.90
5246;DHT22;54412;51.206;6.888;2023-08-12T07:26:25;20.70;99.90
5246;DHT22;54412;51.206;6.888;2023-08-12T07:28:50;20.80;99.90
5246;DHT22;54412;51.206;6.888;2023-08-12T07:31:17;20.90;99.90
5246;DHT22;54412;51.206;6.888;2023-08-12T07:33:43;21.00;99.90
5246;DHT22;54412;51.206;6.888;2023-08-12T07:36:09;21.00;99.90
5246;DHT22;54412;51.206;6.888;2023-08-12T07:38:35;20.90;99.90
5246;DHT22;54412;51.206;6.888;2023-08-12T07:41:00;21.10;99.90
5246;DHT22;54412;51.206;6.888;2023-08-12T07:43:26;21.20;99.90
5246;DHT22;54412;51.206;6.888;2023-08-12T07:45:52;21.30;99.90
5246;DHT22;54412;51.206;6.888;2023-08-12T07:48:22;21.20;99.90
5246;DHT22;54412;51.206;6.888;2023-08-12T07:50:54;21.20;99.90
5246;DHT22;54412;51.206;6.888;2023-08-12T07:53:20;21.20;99.90
5246;DHT22;54412;51.206;6.888;2023-08-12T07:55:46;21.20;99.90
5246;DHT22;54412;51.206;6.888;2023-08-12T07:58:11;21.30;99.90
5246;DHT22;54412;51.206;6.888;2023-08-12T08:00:38;21.20;99.90
5246;DHT22;54412;51.206;6.888;2023-08-12T08:03:04;21.10;99.90
5246;DHT22;54412;51.206;6.888;2023-08-12T08:05:30;21.20;99.90
5246;DHT22;54412;51.206;6.888;2023-08-12T08:07:56;21.10;99.90
5246;DHT22;54412;51.206;6.888;2023-08-12T08:10:22;21.10;99.90
5246;DHT22;54412;51.206;6.888;2023-08-12T08:12:48;20.90;99.90
5246;DHT22;54412;51.206;6.888;2023-08-12T08:15:13;21.10;99.90
5246;DHT22;54412;51.206;6.888;2023-08-12T08:17:39;21.20;99.90
5246;DHT22;54412;51.206;6.888;2023-08-12T08:20:05;21.10;99.90
5246;DHT22;54412;51.206;6.888;2023-08-12T08:22:32;21.10;99.90
5246;DHT22;54412;51.206;6.888;2023-08-12T08:24:58;21.10;99.90
5246;DHT22;54412;51.206;6.888;2023-08-12T08:27:24;21.00;99.90
5246;DHT22;54412;51.206;6.888;2023-08-12T08:29:50;21.10;99.90
5246;DHT22;54412;51.206;6.888;2023-08-12T08:32:16;21.10;99.90
5246;DHT22;54412;51.206;6.888;2023-08-12T08:34:42;21.20;99.90
5246;DHT22;54412;51.206;6.888;2023-08-12T08:37:08;21.10;99.90
5246;DHT22;54412;51.206;6.888;2023-08-12T08:39:33;21.20;99.90
5246;DHT22;54412;51.206;6.888;2023-08-12T08:41:59;21.30;99.90
5246;DHT22;54412;51.206;6.888;2023-08-12T08:44:29;21.30;99.90
5246;DHT22;54412;51.206;6.888;2023-08-12T08:46:58;21.30;99.90
5246;DHT22;54412;51.206;6.888;2023-08-12T08:49:29;21.20;99.90
5246;DHT22;54412;51.206;6.888;2023-08-12T08:51:56;21.30;99.90
5246;DHT22;54412;51.206;6.888;2023-08-12T08:54:23;21.30;99.90
5246;DHT22;54412;51.206;6.888;2023-08-12T08:56:49;21.40;99.90
5246;DHT22;54412;51.206;6.888;2023-08-12T08:59:15;21.40;99.90
5246;DHT22;54412;51.206;6.888;2023-08-12T09:01:42;21.30;99.90
5246;DHT22;54412;51.206;6.888;2023-08-12T09:04:12;21.20;99.90
5246;DHT22;54412;51.206;6.888;2023-08-12T09:06:40;21.30;99.90
5246;DHT22;54412;51.206;6.888;2023-08-12T09:09:10;21.40;99.90
5246;DHT22;54412;51.206;6.888;2023-08-12T09:11:39;21.40;99.90
5246;DHT22;54412;51.206;6.888;2023-08-12T09:14:06;21.50;99.90
5246;DHT22;54412;51.206;6.888;2023-08-12T09:16:32;21.30;99.90
5246;DHT22;54412;51.206;6.888;2023-08-12T09:18:58;21.40;99.90
5246;DHT22;54412;51.206;6.888;2023-08-12T09:21:24;21.60;99.90
5246;DHT22;54412;51.206;6.888;2023-08-12T09:23:50;21.70;99.90
5246;DHT22;54412;51.206;6.888;2023-08-12T09:26:17;21.60;99.90
5246;DHT22;54412;51.206;6.888;2023-08-12T09:28:45;21.70;99.90
5246;DHT22;54412;51.206;6.888;2023-08-12T09:31:29;21.70;99.90
5246;DHT22;54412;51.206;6.888;2023-08-12T09:34:04;21.90;99.90
5246;DHT22;54412;51.206;6.888;2023-08-12T09:36:34;21.90;99.90
5246;DHT22;54412;51.206;6.888;2023-08-12T09:39:00;22.00;99.90
5246;DHT22;54412;51.206;6.888;2023-08-12T09:41:31;22.00;99.90
5246;DHT22;54412;51.206;6.888;2023-08-12T09:43:57;22.00;99.90
5246;DHT22;54412;51.206;6.888;2023-08-12T09:46:23;22.10;99.90
5246;DHT22;54412;51.206;6.888;2023-08-12T09:48:51;22.10;99.90
5246;DHT22;54412;51.206;6.888;2023-08-12T09:51:18;22.20;99.90
5246;DHT22;54412;51.206;6.888;2023-08-12T09:53:46;22.10;99.90
5246;DHT22;54412;51.206;6.888;2023-08-12T09:56:13;22.00;99.90
5246;DHT22;54412;51.206;6.888;2023-08-12T09:58:44;22.00;99.90
5246;DHT22;54412;51.206;6.888;2023-08-12T10:01:13;22.00;99.90
5246;DHT22;54412;51.206;6.888;2023-08-12T10:03:44;22.10;99.90
5246;DHT22;54412;51.206;6.888;2023-08-12T10:06:15;22.20;99.90
5246;DHT22;54412;51.206;6.888;2023-08-12T10:08:42;22.20;99.90
5246;DHT22;54412;51.206;6.888;2023-08-12T10:11:09;22.20;99.90
5246;DHT22;54412;51.206;6.888;2023-08-12T10:13:35;22.20;99.90
5246;DHT22;54412;51.206;6.888;2023-08-12T10:16:02;22.30;99.90
5246;DHT22;54412;51.206;6.888;2023-08-12T10:18:28;22.40;99.90
5246;DHT22;54412;51.206;6.888;2023-08-12T10:21:00;22.30;99.90
5246;DHT22;54412;51.206;6.888;2023-08-12T10:23:26;22.40;99.90
5246;DHT22;54412;51.206;6.888;2023-08-12T10:25:57;22.30;99.90
5246;DHT22;54412;51.206;6.888;2023-08-12T10:28:25;22.40;99.90
5246;DHT22;54412;51.206;6.888;2023-08-12T10:30:51;22.30;99.90
5246;DHT22;54412;51.206;6.888;2023-08-12T10:33:18;22.30;99.90
5246;DHT22;54412;51.206;6.888;2023-08-12T10:35:45;22.30;99.90
5246;DHT22;54412;51.206;6.888;2023-08-12T10:38:20;22.30;99.90
5246;DHT22;54412;51.206;6.888;2023-08-12T10:40:47;22.20;99.90
5246;DHT22;54412;51.206;6.888;2023-08-12T10:43:13;22.30;99.90
5246;DHT22;54412;51.206;6.888;2023-08-12T10:45:52;22.30;99.90
5246;DHT22;54412;51.206;6.888;2023-08-12T10:48:23;22.30;99.90
5246;DHT22;54412;51.206;6.888;2023-08-12T10:50:59;22.40;99.90
5246;DHT22;54412;51.206;6.888;2023-08-12T10:53:26;22.40;99.90
5246;DHT22;54412;51.206;6.888;2023-08-12T10:55:58;22.50;99.90
5246;DHT22;54412;51.206;6.888;2023-08-12T10:58:33;22.40;99.90
5246;DHT22;54412;51.206;6.888;2023-08-12T11:01:00;22.40;99.90
5246;DHT22;54412;51.206;6.888;2023-08-12T11:03:31;22.40;99.90
5246;DHT22;54412;51.206;6.888;2023-08-12T11:06:01;22.40;99.90
5246;DHT22;54412;51.206;6.888;2023-08-12T11:08:28;22.30;99.90
5246;DHT22;54412;51.206;6.888;2023-08-12T11:10:55;22.30;99.90
5246;DHT22;54412;51.206;6.888;2023-08-12T11:13:27;22.20;99.90
5246;DHT22;54412;51.206;6.888;2023-08-12T11:16:06;22.00;99.90
5246;DHT22;54412;51.206;6.888;2023-08-12T11:18:33;21.80;99.90
5246;DHT22;54412;51.206;6.888;2023-08-12T11:20:58;21.90;99.90
5246;DHT22;54412;51.206;6.888;2023-08-12T11:23:25;21.80;99.90
5246;DHT22;54412;51.206;6.888;2023-08-12T11:25:53;21.90;99.90
5246;DHT22;54412;51.206;6.888;2023-08-12T11:28:18;21.90;99.90
5246;DHT22;54412;51.206;6.888;2023-08-12T11:30:47;22.10;99.90
5246;DHT22;54412;51.206;6.888;2023-08-12T11:33:15;22.00;99.90
5246;DHT22;54412;51.206;6.888;2023-08-12T11:35:43;22.20;99.90
5246;DHT22;54412;51.206;6.888;2023-08-12T11:38:09;22.10;99.90
5246;DHT22;54412;51.206;6.888;2023-08-12T11:40:35;22.30;99.90
5246;DHT22;54412;51.206;6.888;2023-08-12T11:43:02;22.30;99.90
5246;DHT22;54412;51.206;6.888;2023-08-12T11:45:29;22.40;99.90
5246;DHT22;54412;51.206;6.888;2023-08-12T11:47:54;22.40;99.90
5246;DHT22;54412;51.206;6.888;2023-08-12T11:50:23;22.40;99.90
5246;DHT22;54412;51.206;6.888;2023-08-12T11:52:51;22.20;99.90
5246;DHT22;54412;51.206;6.888;2023-08-12T11:55:18;22.40;99.90
5246;DHT22;54412;51.206;6.888;2023-08-12T11:57:46;22.50;99.90
5246;DHT22;54412;51.206;6.888;2023-08-12T12:00:13;22.80;99.90
5246;DHT22;54412;51.206;6.888;2023-08-12T12:02:50;23.00;99.90
5246;DHT22;54412;51.206;6.888;2023-08-12T12:05:22;23.10;99.90
5246;DHT22;54412;51.206;6.888;2023-08-12T12:07:49;23.20;99.90
5246;DHT22;54412;51.206;6.888;2023-08-12T12:10:30;23.00;99.90
5246;DHT22;54412;51.206;6.888;2023-08-12T12:12:57;23.00;99.90
5246;DHT22;54412;51.206;6.888;2023-08-12T12:15:24;23.00;99.90
5246;DHT22;54412;51.206;6.888;2023-08-12T12:17:50;23.10;99.90
5246;DHT22;54412;51.206;6.888;2023-08-12T12:20:16;23.20;99.90
5246;DHT22;54412;51.206;6.888;2023-08-12T12:22:44;23.20;99.90
5246;DHT22;54412;51.206;6.888;2023-08-12T12:25:12;23.20;99.90
5246;DHT22;54412;51.206;6.888;2023-08-12T12:27:39;23.20;99.90
5246;DHT22;54412;51.206;6.888;2023-08-12T12:30:10;23.10;99.90
5246;DHT22;54412;51.206;6.888;2023-08-12T12:32:37;23.00;99.90
5246;DHT22;54412;51.206;6.888;2023-08-12T12:35:03;23.10;99.90
5246;DHT22;54412;51.206;6.888;2023-08-12T12:37:32;23.00;99.90
5246;DHT22;54412;51.206;6.888;2023-08-12T12:39:58;23.10;99.90
5246;DHT22;54412;51.206;6.888;2023-08-12T12:42:24;23.20;99.90
5246;DHT22;54412;51.206;6.888;2023-08-12T12:44:49;23.10;99.90
5246;DHT22;54412;51.206;6.888;2023-08-12T12:47:16;23.00;99.90
5246;DHT22;54412;51.206;6.888;2023-08-12T12:49:42;22.80;99.90
5246;DHT22;54412;51.206;6.888;2023-08-12T12:52:08;22.60;99.90
5246;DHT22;54412;51.206;6.888;2023-08-12T12:54:33;22.30;99.90
5246;DHT22;54412;51.206;6.888;2023-08-12T12:56:59;22.10;99.90
5246;DHT22;54412;51.206;6.888;2023-08-12T12:59:26;22.00;99.90
5246;DHT22;54412;51.206;6.888;2023-08-12T13:01:52;22.10;99.90
5246;DHT22;54412;51.206;6.888;2023-08-12T13:04:19;22.00;99.90
5246;DHT22;54412;51.206;6.888;2023-08-12T13:06:45;22.00;99.90
5246;DHT22;54412;51.206;6.888;2023-08-12T13:09:17;22.00;99.90
5246;DHT22;54412;51.206;6.888;2023-08-12T13:11:43;22.10;99.90
5246;DHT22;54412;51.206;6.888;2023-08-12T13:14:09;22.10;99.90
5246;DHT22;54412;51.206;6.888;2023-08-12T13:16:35;22.00;99.90
5246;DHT22;54412;51.206;6.888;2023-08-12T13:19:02;21.90;99.90
5246;DHT22;54412;51.206;6.888;2023-08-12T13:21:28;22.00;99.90
5246;DHT22;54412;51.206;6.888;2023-08-12T13:23:53;22.00;99.90
5246;DHT22;54412;51.206;6.888;2023-08-12T13:26:20;21.90;99.90
5246;DHT22;54412;51.206;6.888;2023-08-12T13:28:47;22.00;99.90
5246;DHT22;54412;51.206;6.888;2023-08-12T13:31:13;22.10;99.90
5246;DHT22;54412;51.206;6.888;2023-08-12T13:33:39;22.00;99.90
5246;DHT22;54412;51.206;6.888;2023-08-12T13:36:04;22.10;99.90
5246;DHT22;54412;51.206;6.888;2023-08-12T13:38:30;22.20;99.90
5246;DHT22;54412;51.206;6.888;2023-08-12T13:40:56;22.20;99.90
5246;DHT22;54412;51.206;6.888;2023-08-12T13:43:21;22.30;99.90
5246;DHT22;54412;51.206;6.888;2023-08-12T13:45:47;22.30;99.90
5246;DHT22;54412;51.206;6.888;2023-08-12T13:48:13;22.30;99.90
5246;DHT22;54412;51.206;6.888;2023-08-12T13:50:39;22.40;99.90
5246;DHT22;54412;51.206;6.888;2023-08-12T13:53:04;22.30;99.90
5246;DHT22;54412;51.206;6.888;2023-08-12T13:55:30;22.40;99.90
5246;DHT22;54412;51.206;6.888;2023-08-12T13:57:56;22.50;99.90
5246;DHT22;54412;51.206;6.888;2023-08-12T14:00:21;22.50;99.90
5246;DHT22;54412;51.206;6.888;2023-08-12T14:02:49;22.50;99.90
5246;DHT22;54412;51.206;6.888;2023-08-12T14:05:15;22.30;99.90
5246;DHT22;54412;51.206;6.888;2023-08-12T14:07:41;22.30;99.90
5246;DHT22;54412;51.206;6.888;2023-08-12T14:10:07;22.20;99.90
5246;DHT22;54412;51.206;6.888;2023-08-12T14:12:33;22.50;99.90
5246;DHT22;54412;51.206;6.888;2023-08-12T14:14:59;22.70;99.90
5246;DHT22;54412;51.206;6.888;2023-08-12T14:17:25;22.80;99.90
5246;DHT22;54412;51.206;6.888;2023-08-12T14:19:52;22.80;99.90
5246;DHT22;54412;51.206;6.888;2023-08-12T14:22:19;23.20;99.90
5246;DHT22;54412;51.206;6.888;2023-08-12T14:24:45;23.50;99.90
5246;DHT22;54412;51.206;6.888;2023-08-12T14:27:13;23.80;99.90
5246;DHT22;54412;51.206;6.888;2023-08-12T14:29:41;23.60;99.90
5246;DHT22;54412;51.206;6.888;2023-08-12T14:32:07;23.50;99.90
5246;DHT22;54412;51.206;6.888;2023-08-12T14:34:33;23.50;99.90
5246;DHT22;54412;51.206;6.888;2023-08-12T14:36:58;23.70;99.90
5246;DHT22;54412;51.206;6.888;2023-08-12T14:39:24;24.00;99.90
5246;DHT22;54412;51.206;6.888;2023-08-12T14:41:50;23.90;99.90
5246;DHT22;54412;51.206;6.888;2023-08-12T14:44:16;24.00;99.90
5246;DHT22;54412;51.206;6.888;2023-08-12T14:46:41;24.00;99.90
5246;DHT22;54412;51.206;6.888;2023-08-12T14:49:07;24.00;99.90
5246;DHT22;54412;51.206;6.888;2023-08-12T14:51:34;24.00;99.90
5246;DHT22;54412;51.206;6.888;2023-08-12T14:53:59;23.90;99.90
5246;DHT22;54412;51.206;6.888;2023-08-12T14:56:25;23.90;99.90
5246;DHT22;54412;51.206;6.888;2023-08-12T14:58:51;24.00;99.90
5246;DHT22;54412;51.206;6.888;2023-08-12T15:01:16;23.90;99.90
5246;DHT22;54412;51.206;6.888;2023-08-12T15:03:42;23.80;99.90
5246;DHT22;54412;51.206;6.888;2023-08-12T15:06:08;23.90;99.90
5246;DHT22;54412;51.206;6.888;2023-08-12T15:08:33;24.00;99.90
5246;DHT22;54412;51.206;6.888;2023-08-12T15:10:59;23.80;99.90
5246;DHT22;54412;51.206;6.888;2023-08-12T15:13:25;23.80;99.90
5246;DHT22;54412;51.206;6.888;2023-08-12T15:15:51;23.80;99.90
5246;DHT22;54412;51.206;6.888;2023-08-12T15:18:17;23.80;99.90
5246;DHT22;54412;51.206;6.888;2023-08-12T15:20:43;23.70;99.90
5246;DHT22;54412;51.206;6.888;2023-08-12T15:23:10;23.70;99.90
5246;DHT22;54412;51.206;6.888;2023-08-12T15:25:36;23.60;99.90
5246;DHT22;54412;51.206;6.888;2023-08-12T15:28:01;23.60;99.90
5246;DHT22;54412;51.206;6.888;2023-08-12T15:30:28;23.70;99.90
5246;DHT22;54412;51.206;6.888;2023-08-12T15:32:55;23.70;99.90
5246;DHT22;54412;51.206;6.888;2023-08-12T15:35:21;23.70;99.90
5246;DHT22;54412;51.206;6.888;2023-08-12T15:37:47;23.80;99.90
5246;DHT22;54412;51.206;6.888;2023-08-12T15:40:13;23.80;99.90
5246;DHT22;54412;51.206;6.888;2023-08-12T15:42:39;23.80;99.90